« 築城行き寄り道 北九州空港 2015/10/23 fri | トップページ | 定点 富山空港 2015/11/22 sun »

2015/11/20

多忙 福岡空港 2015/10/26 mon

築城航空祭の翌日。帰路は福岡空港から中部経由です。朝の一時、いきなりラッシュで始まる福岡空港でした。

RJFF 252200Z 14003KT CAVOK 12/08 Q1021 RMK A3017

20151026_rjff_00ja8397

JAL300 RJFF-RJTT JA8397 B767-346

20151026_rjff_01ja854a

ANA1672 RJFF-RJOO JA854A DHC8-402Q

20151026_rjff_02ja219j

JAL2050 RJFF-RJOO JA219J ERJ-170STD

20151026_rjff_03ja712a

ANA240 RJFF-RJTT JA712A B777-281

20151026_rjff_04ja737y

SKY2 RJFF-RJTT JA737Y B737-8FZ

20151026_rjff_05ja8504

ANA2142 RJFF-RJAA JA8504 B737-54K

20151026_rjff_06ja846c

JAC3621 RJFF-RJFM JA846C DHC8-402Q

20151026_rjff_07ja8993

JTA51 RJFF-ROAH JA8993 B737-446

20151026_rjff_08ja346j

JAL3052 RJFF-RJAA JA346J B737-846

20151026_rjff_09ja847c

JAC3591 RJFF-RJOM JA847C DHC8-402Q

20151026_rjff_10ja8419

ANA1201 RJFF-ROAH JA8419 B737-54K

20151026_rjff_11ja8704

JAC3651 RJFF-RJFK JA8704 SF34

20151026_rjff_12ja846a

ANA4951 RJFF-RJFM JA846A DHC8-402Q

20151026_rjff_13ja05rj

IBX84 RJFF-RJNK JA05RJ CRJ-702

20151026_rjff_14ja8196

ANA4931 RJFF-RJDT JA8196 B737-54K

20151026_rjff_15ja008d

JAL303 RJTT-RJFF JA008D B777-289

RJFF 252300Z 16003KT CAVOK 14/08 Q1022 RMK A3018

20151026_rjff_16hstbc

THA648 VTBS-RJFF HS-TBC A330-343

20151026_rjff_17ja06jj

JJP501 RJAA-RJFF JA06JJ A320-232

20151026_rjff_18ja771j

JAL302 RJFF-RJTT JA771J B777-246

20151026_rjff_19ja604a

ANA239 RJTT-RJFF JA604A B767-381ER

20151026_rjff_20ja02an

ANA1702 RJFF-RJBB JA02AN B737-781

20151026_rjff_22ja225j

JAL2051 RJOO-RJFF JA225J ERJ-170STD

20151026_rjff_23ja73nn

SKY501 RJFF-ROAH JA73NN B737-81D
ANA432 RJFF-RJGG JA8404 B737-54K

20151026_rjff_24ja805p

APJ151 RJBB-RJFF JA805P A320-214

20151026_rjff_25ja73nu

SKY1 RJTT-RJFF JA73NU B737-86N

20151026_rjff_26ja306k

ANA1281 RJFF-RJSN JA306K B737-54K

20151026_rjff_27hl8013

JIN221 RKSI-RJFF HL8013 B737-8SH

20151026_rjff_28ja752a

ANA242 RJFF-RJTT JA752A B777-381

20151026_rjff_29ja842a

ANA1671 RJOO-RJFF JA842A DHC8-402Q

20151026_rjff_30ja8649

JAC3551 RJFF-RJOC JA8649 SF34

20151026_rjff_31x9vssb

SIA656 WSSS-RJFF 9V-SSB A330-343

20151026_rjff_32ja843c

JAC3620 RJFM-RJFF JA843C DHC8-402Q

20151026_rjff_33hl7722

ABL148 RKPK-RJFF HL7722 A321-231

20151026_rjff_34ja09mc

SFJ41 RJTT-RJFF JA09MC A320-214

20151026_rjff_35h4492

57-4492 CH-47J(LR) KASUGA-HT

どうも背振山から帰ってきたようだ。

20151026_rjff_36ja8669

ANA1200 ROAH-RJFF JA8669 B767-381

20151026_rjff_37ja359k

ANA422 RJFF-RJOO JA359K B737-54K

20151026_rjff_38ja8999

JTA50 ROAH-RJFF JA8999 B737-446

20151026_rjff_39h4495

67-4495 CH-47J(LR) KASUGA-HT

こちらは、昨日築城航空祭に展示されたもの。

20151026_rjff_40ja8985

JAL304 RJFF-RJTT JA8985 B777-246

20151026_rjff_41ja81am

AHX101 RJDA-RJFF JA81AM DHC8-100

20151026_rjff_42ja01fj

FDA301 RJNA-RJFF JA01FJ ERJ-170STD

RJFF 260000Z VRB01KT CAVOK 17/07 Q1022 RMK A3018

以後は、久しぶりの探検隊です。

|

« 築城行き寄り道 北九州空港 2015/10/23 fri | トップページ | 定点 富山空港 2015/11/22 sun »

福岡空港」カテゴリの記事

コメント

コメントを書く



(ウェブ上には掲載しません)


コメントは記事投稿者が公開するまで表示されません。



トラックバック


この記事へのトラックバック一覧です: 多忙 福岡空港 2015/10/26 mon:

« 築城行き寄り道 北九州空港 2015/10/23 fri | トップページ | 定点 富山空港 2015/11/22 sun »